createdAt,value
2023-11-20T02:01:06.469Z,83.57
2023-11-20T02:05:08.493Z,92.89
2023-11-20T02:09:09.959Z,92.32
2023-11-20T05:22:10.095Z,88.43
2023-11-20T05:26:11.596Z,90.33
2023-11-20T05:43:46.149Z,87.35
2023-11-20T05:47:47.876Z,88.06
2023-11-20T05:57:06.803Z,93.92
2023-11-20T06:51:09.995Z,90.13
2023-11-20T06:55:11.868Z,89.17
2023-11-20T06:59:13.422Z,89.51
2023-11-20T07:03:14.995Z,90.58
2023-11-20T07:07:17.351Z,90.14
2023-11-20T07:11:18.929Z,89.49
2023-11-20T07:15:21.255Z,88.72
2023-11-20T07:19:22.771Z,88.46
2023-11-20T07:23:24.294Z,89.04
2023-11-20T07:27:25.779Z,91.78
2023-11-20T07:31:28.726Z,90.20
2023-11-20T07:35:30.571Z,96.67
2023-11-20T07:39:32.997Z,94.02
2023-11-20T07:43:34.605Z,92.47
2023-11-20T07:47:36.182Z,97.91
2023-11-20T07:51:37.689Z,98.04
2023-11-20T07:55:39.159Z,96.40
2023-11-20T07:59:40.659Z,93.63
2023-11-20T08:03:43.031Z,92.01
2023-11-20T08:07:44.579Z,92.24
2023-11-20T08:11:46.002Z,91.81
2023-11-20T08:15:48.160Z,92.14
2023-11-20T08:19:50.157Z,92.25
2023-11-20T08:23:52.074Z,92.52
2023-11-20T08:27:53.733Z,95.15
2023-11-20T08:31:55.451Z,93.02
2023-11-20T08:35:58.312Z,91.67
2023-11-20T08:44:36.871Z,93.31
2023-11-20T08:48:38.365Z,91.81
2023-11-20T08:52:39.876Z,89.94
2023-11-20T08:56:41.345Z,89.00
2023-11-20T09:00:43.586Z,88.78
2023-11-20T09:04:45.165Z,90.29
2023-11-20T09:08:46.678Z,89.87
2023-11-20T09:12:48.696Z,89.36
2023-11-20T09:16:50.317Z,89.57
2023-11-20T09:20:54.805Z,92.93
2023-11-20T09:25:02.899Z,91.09
2023-11-20T09:29:07.920Z,95.86
2023-11-20T09:33:09.718Z,96.19
2023-11-20T09:37:11.304Z,92.12
2023-11-20T09:45:58.958Z,91.03
2023-11-20T11:15:54.330Z,86.70
2023-11-20T11:20:12.673Z,87.02
2023-11-20T11:24:37.582Z,85.71
2023-11-20T11:28:44.056Z,85.40
2023-11-20T11:32:55.867Z,84.17
2023-11-20T11:37:07.683Z,95.58
2023-11-20T11:41:24.817Z,91.81
2023-11-20T11:45:31.428Z,88.84
2023-11-20T11:49:32.912Z,89.84
2023-11-20T12:05:00.908Z,83.93
2023-11-20T12:09:04.910Z,83.05
2023-11-20T12:18:41.131Z,78.95
2023-11-20T12:23:07.835Z,78.16
2023-11-20T12:27:09.617Z,77.88
2023-11-20T12:31:12.733Z,79.69
2023-11-20T12:35:14.750Z,83.12
2023-11-20T12:39:17.053Z,81.44
2023-11-20T12:57:44.335Z,87.03
2023-11-20T13:01:48.220Z,86.00
2023-11-20T13:05:54.231Z,86.16
2023-11-20T13:09:56.002Z,84.62
2023-11-20T13:13:58.373Z,83.96
2023-11-20T13:18:01.522Z,85.31
2023-11-20T13:26:27.499Z,86.29
2023-11-20T16:07:48.740Z,100.00
2023-11-20T16:11:52.249Z,100.00
2023-11-20T16:15:54.362Z,100.00
2023-11-20T16:19:55.929Z,100.00
2023-11-20T16:23:57.418Z,100.00
2023-11-20T16:27:58.921Z,100.00
2023-11-20T16:45:53.868Z,100.00
2023-11-20T16:58:56.804Z,100.00
2023-11-20T17:02:58.612Z,100.00
2023-11-20T17:07:00.594Z,100.00
2023-11-20T17:11:02.235Z,100.00
2023-11-20T17:15:07.868Z,100.00
2023-11-20T17:19:09.423Z,100.00
2023-11-20T17:27:41.797Z,100.00
2023-11-20T17:41:11.010Z,100.00
2023-11-20T17:45:24.637Z,100.00
2023-11-20T17:49:26.381Z,100.00
2023-11-20T17:53:27.866Z,100.00
2023-11-20T17:57:29.316Z,100.00
2023-11-20T18:33:49.661Z,99.48
2023-11-20T18:37:51.839Z,100.00
2023-11-20T18:56:57.643Z,100.00
2023-11-20T19:24:34.626Z,100.00
2023-11-20T19:28:36.193Z,100.00
2023-11-20T20:48:22.664Z,100.00
2023-11-20T21:06:40.414Z,99.22
2023-11-20T22:01:39.791Z,93.51
2023-11-20T22:05:41.696Z,89.91
2023-11-20T22:09:43.161Z,91.42
2023-11-20T23:12:55.552Z,80.71
2023-11-20T23:16:57.902Z,77.74
2023-11-20T23:43:35.828Z,79.36
2023-11-20T23:47:38.092Z,78.90
